createdAt,value
2022-10-18T00:01:09.811Z,8.57
2022-10-18T00:03:36.711Z,7.80
2022-10-18T00:06:03.250Z,6.63
2022-10-18T00:08:29.481Z,8.83
2022-10-18T00:10:55.768Z,6.43
2022-10-18T00:13:22.636Z,6.53
2022-10-18T00:15:59.689Z,7.27
2022-10-18T00:46:03.094Z,8.77
2022-10-18T00:48:29.327Z,9.07
2022-10-18T00:50:55.621Z,9.47
2022-10-18T00:53:22.689Z,7.30
2022-10-18T01:03:28.746Z,8.23
2022-10-18T01:05:55.111Z,8.17
2022-10-18T01:08:40.219Z,9.07
2022-10-18T01:11:09.445Z,9.40
2022-10-18T01:13:54.172Z,10.20
2022-10-18T01:16:26.513Z,12.33
2022-10-18T01:19:21.797Z,12.30
2022-10-18T01:21:50.657Z,8.40
2022-10-18T01:24:42.155Z,11.83
2022-10-18T01:54:41.524Z,10.27
2022-10-18T01:57:10.792Z,10.90
2022-10-18T01:59:46.019Z,12.93
2022-10-18T02:02:31.104Z,9.90
2022-10-18T02:05:03.608Z,10.23
2022-10-18T02:07:36.484Z,9.93
2022-10-18T02:10:07.204Z,12.23
2022-10-18T02:12:33.902Z,10.40
2022-10-18T02:15:01.391Z,13.40
2022-10-18T02:17:29.769Z,12.73
2022-10-18T02:19:56.465Z,13.53
2022-10-18T02:22:25.329Z,15.27
2022-10-18T02:24:53.660Z,13.50
2022-10-18T02:52:08.325Z,11.53
2022-10-18T02:54:34.615Z,16.63
2022-10-18T02:57:00.854Z,11.10
2022-10-18T02:59:27.095Z,10.50
2022-10-18T03:01:53.587Z,14.97
2022-10-18T03:04:19.906Z,14.43
2022-10-18T03:06:46.187Z,15.87
2022-10-18T03:09:12.676Z,14.63
2022-10-18T03:11:38.948Z,15.10
2022-10-18T03:14:05.207Z,13.10
2022-10-18T03:16:31.518Z,12.67
2022-10-18T03:18:57.768Z,13.13
2022-10-18T03:21:24.001Z,15.30
2022-10-18T03:23:50.274Z,13.73
2022-10-18T03:26:16.542Z,14.83
2022-10-18T03:28:42.930Z,14.93
2022-10-18T03:31:09.224Z,13.57
2022-10-18T03:33:35.469Z,11.63
2022-10-18T03:36:01.815Z,14.20
2022-10-18T03:38:28.061Z,10.37
2022-10-18T03:40:54.293Z,13.30
2022-10-18T03:43:20.560Z,12.80
2022-10-18T03:45:46.788Z,11.43
2022-10-18T03:48:13.103Z,10.40
2022-10-18T03:50:39.377Z,11.37
2022-10-18T03:53:05.688Z,12.90
2022-10-18T03:55:31.971Z,11.40
2022-10-18T03:57:58.373Z,12.83
2022-10-18T04:00:24.712Z,9.67
2022-10-18T04:02:53.457Z,13.20
2022-10-18T04:05:23.946Z,12.07
2022-10-18T04:07:50.434Z,13.33
2022-10-18T04:10:16.706Z,10.87
2022-10-18T04:12:42.920Z,11.73
2022-10-18T04:15:09.531Z,12.13
2022-10-18T04:17:35.802Z,11.37
2022-10-18T04:20:02.050Z,12.97
2022-10-18T04:22:28.288Z,11.77
2022-10-18T04:24:54.499Z,13.40
2022-10-18T04:27:20.711Z,10.77
2022-10-18T04:29:46.996Z,11.17
2022-10-18T04:32:13.237Z,27.30
2022-10-18T04:34:39.501Z,32.70
2022-10-18T04:37:05.755Z,13.03
2022-10-18T04:39:32.108Z,13.93
2022-10-18T04:41:58.368Z,13.07
2022-10-18T04:44:24.761Z,11.50
2022-10-18T04:46:51.015Z,13.10
2022-10-18T04:49:17.295Z,12.87
2022-10-18T04:51:43.491Z,16.27
2022-10-18T04:54:09.728Z,15.33
2022-10-18T04:56:35.968Z,20.40
2022-10-18T04:59:02.216Z,21.27
2022-10-18T05:01:28.527Z,18.53
2022-10-18T05:03:55.064Z,22.60
2022-10-18T05:06:22.532Z,24.13
2022-10-18T05:08:48.983Z,26.67
2022-10-18T05:11:15.346Z,55.83
2022-10-18T05:13:41.568Z,50.27
2022-10-18T05:16:07.772Z,33.37
2022-10-18T05:18:34.041Z,28.97
2022-10-18T05:21:00.329Z,25.60
2022-10-18T05:23:26.630Z,24.53
2022-10-18T05:25:53.570Z,24.00
2022-10-18T05:31:06.938Z,27.87
2022-10-18T05:33:33.196Z,26.80
2022-10-18T05:35:59.476Z,26.90
2022-10-18T05:38:26.012Z,28.97
2022-10-18T05:40:52.315Z,40.50
2022-10-18T05:43:18.756Z,46.17
2022-10-18T05:45:48.897Z,39.13
2022-10-18T05:48:15.517Z,28.93
2022-10-18T05:50:41.975Z,27.67
2022-10-18T05:53:12.433Z,27.50
2022-10-18T05:55:44.735Z,25.73
2022-10-18T05:58:10.987Z,25.43
2022-10-18T06:00:38.534Z,28.40
2022-10-18T06:03:04.848Z,28.40
2022-10-18T06:05:31.148Z,24.13
2022-10-18T06:07:57.452Z,23.23
2022-10-18T06:10:23.997Z,23.23
2022-10-18T06:12:50.319Z,23.40
2022-10-18T06:15:16.634Z,30.37
2022-10-18T06:17:43.032Z,20.07
2022-10-18T06:20:09.470Z,23.50
2022-10-18T06:22:35.783Z,20.37
2022-10-18T06:25:02.180Z,20.40
2022-10-18T06:27:28.706Z,22.13
2022-10-18T06:29:55.178Z,22.40
2022-10-18T06:32:21.474Z,21.97
2022-10-18T06:34:47.814Z,20.93
2022-10-18T06:37:14.080Z,21.30
2022-10-18T06:39:40.958Z,18.97
2022-10-18T06:42:07.654Z,22.80
2022-10-18T06:44:33.959Z,20.93
2022-10-18T06:47:00.357Z,19.10
2022-10-18T06:49:26.708Z,19.37
2022-10-18T06:51:53.696Z,21.57
2022-10-18T06:54:20.040Z,18.70
2022-10-18T06:56:46.627Z,58.37
2022-10-18T06:59:13.022Z,57.73
2022-10-18T07:01:39.389Z,25.50
2022-10-18T07:04:05.693Z,19.77
2022-10-18T07:06:31.961Z,20.53
2022-10-18T07:08:58.356Z,23.60
2022-10-18T07:11:25.627Z,20.87
2022-10-18T07:13:54.013Z,20.07
2022-10-18T07:16:20.525Z,21.47
2022-10-18T07:18:49.194Z,21.57
2022-10-18T07:21:16.650Z,21.10
2022-10-18T07:23:43.654Z,22.87
2022-10-18T07:26:16.040Z,28.37
2022-10-18T07:28:43.131Z,25.77
2022-10-18T07:31:10.074Z,26.10
2022-10-18T07:33:38.027Z,25.67
2022-10-18T07:36:05.645Z,25.97
2022-10-18T07:38:31.953Z,27.77
2022-10-18T07:40:58.741Z,25.53
2022-10-18T07:43:25.467Z,27.03
2022-10-18T07:45:52.959Z,37.80
2022-10-18T07:48:19.398Z,45.90
2022-10-18T07:50:45.690Z,29.13
2022-10-18T07:53:12.029Z,28.97
2022-10-18T07:55:38.344Z,30.20
2022-10-18T07:58:04.736Z,27.80
2022-10-18T08:00:31.021Z,27.53
2022-10-18T08:02:58.027Z,32.17
2022-10-18T08:05:24.689Z,29.93
2022-10-18T08:07:51.060Z,32.00
2022-10-18T08:10:17.384Z,29.60
2022-10-18T08:12:43.779Z,27.30
2022-10-18T08:15:10.278Z,29.17
2022-10-18T08:17:36.706Z,30.60
2022-10-18T08:20:12.174Z,32.60
2022-10-18T08:22:45.442Z,32.73
2022-10-18T08:25:11.756Z,27.37
2022-10-18T08:27:38.086Z,32.70
2022-10-18T08:30:04.515Z,29.00
2022-10-18T08:32:31.235Z,30.50
2022-10-18T08:34:57.759Z,31.87
2022-10-18T08:37:24.097Z,29.83
2022-10-18T08:39:50.419Z,31.70
2022-10-18T08:42:21.559Z,33.20
2022-10-18T08:44:48.609Z,35.53
2022-10-18T08:47:34.299Z,36.67
2022-10-18T08:50:27.403Z,41.70
2022-10-18T08:52:53.646Z,38.73
2022-10-18T08:55:26.377Z,45.30
2022-10-18T08:57:53.063Z,35.93
2022-10-18T09:00:24.432Z,34.93
2022-10-18T09:02:50.717Z,37.73
2022-10-18T09:05:24.504Z,38.07
2022-10-18T09:08:11.422Z,40.10
2022-10-18T09:10:49.841Z,36.13
2022-10-18T09:13:22.246Z,32.97
2022-10-18T09:15:48.573Z,34.67
2022-10-18T09:18:14.819Z,32.70
2022-10-18T09:20:49.748Z,34.17
2022-10-18T09:23:33.288Z,40.33
2022-10-18T09:26:22.908Z,37.90
2022-10-18T09:29:07.773Z,42.03
2022-10-18T09:31:34.187Z,48.97
2022-10-18T09:34:01.880Z,57.50
2022-10-18T09:36:35.296Z,45.80
2022-10-18T09:39:03.809Z,38.63
2022-10-18T09:41:36.149Z,39.03
2022-10-18T09:44:06.808Z,40.50
2022-10-18T09:46:36.023Z,39.10
2022-10-18T09:49:04.461Z,42.47
2022-10-18T09:51:34.775Z,36.40
2022-10-18T09:54:01.107Z,38.40
2022-10-18T09:56:35.618Z,43.13
2022-10-18T09:59:05.874Z,41.33
2022-10-18T10:01:33.216Z,45.70
2022-10-18T10:03:59.517Z,49.77
2022-10-18T10:06:30.026Z,53.53
2022-10-18T10:08:59.513Z,47.63
2022-10-18T10:11:29.953Z,52.90
2022-10-18T10:14:08.249Z,55.13
2022-10-18T10:16:42.384Z,50.73
2022-10-18T10:19:15.626Z,54.33
2022-10-18T10:21:42.158Z,55.10
2022-10-18T10:24:17.723Z,60.53
2022-10-18T10:26:44.035Z,55.87
2022-10-18T10:29:44.239Z,65.27
2022-10-18T10:32:13.108Z,58.93
2022-10-18T10:34:43.838Z,57.30
2022-10-18T10:37:25.483Z,57.63
2022-10-18T10:40:17.660Z,67.87
2022-10-18T10:43:00.075Z,65.17
2022-10-18T10:45:41.326Z,58.67
2022-10-18T10:48:09.172Z,58.87
2022-10-18T10:50:49.918Z,62.17
2022-10-18T10:53:41.248Z,56.03
2022-10-18T10:56:16.159Z,57.97
2022-10-18T10:58:42.768Z,54.63
2022-10-18T11:01:20.533Z,54.73
2022-10-18T11:03:47.842Z,57.17
2022-10-18T11:06:29.826Z,53.43
2022-10-18T11:08:57.797Z,50.03
2022-10-18T11:11:28.478Z,49.23
2022-10-18T11:14:21.170Z,50.40
2022-10-18T11:16:56.932Z,48.67
2022-10-18T11:19:34.275Z,50.43
2022-10-18T11:22:02.517Z,53.80
2022-10-18T11:24:29.005Z,54.47
2022-10-18T11:27:08.958Z,57.73
2022-10-18T11:29:38.284Z,59.70
2022-10-18T11:32:07.605Z,58.63
2022-10-18T11:34:52.189Z,69.17
2022-10-18T11:37:32.199Z,56.73
2022-10-18T11:40:11.449Z,53.83
2022-10-18T11:42:39.991Z,49.97
2022-10-18T11:45:13.673Z,46.57
2022-10-18T11:47:43.117Z,56.60
2022-10-18T11:50:26.045Z,57.03
2022-10-18T11:52:52.342Z,57.50
2022-10-18T11:55:33.314Z,62.47
2022-10-18T11:58:15.102Z,57.80
2022-10-18T12:00:56.728Z,58.67
2022-10-18T12:03:22.988Z,57.50
2022-10-18T12:05:50.516Z,58.37
2022-10-18T12:08:39.871Z,53.30
2022-10-18T12:11:09.644Z,51.27
2022-10-18T12:13:43.048Z,51.47
2022-10-18T12:16:10.286Z,48.17
2022-10-18T12:18:41.465Z,42.53
2022-10-18T12:21:07.849Z,41.07
2022-10-18T12:23:53.148Z,35.17
2022-10-18T12:26:19.510Z,28.67
2022-10-18T12:29:04.653Z,29.97
2022-10-18T12:31:33.926Z,25.30
2022-10-18T12:34:12.668Z,26.13
2022-10-18T12:36:38.909Z,23.80
2022-10-18T12:39:06.524Z,21.43
2022-10-18T12:41:34.539Z,30.43
2022-10-18T12:44:18.351Z,38.30
2022-10-18T12:46:46.172Z,43.27
2022-10-18T12:49:13.453Z,43.40
2022-10-18T12:51:50.417Z,43.17
2022-10-18T12:54:16.977Z,57.37
2022-10-18T12:56:43.857Z,64.70
2022-10-18T12:59:16.203Z,49.57
2022-10-18T13:01:54.739Z,43.00
2022-10-18T13:04:32.366Z,45.03
2022-10-18T13:06:59.448Z,46.20
2022-10-18T13:09:30.428Z,38.83
2022-10-18T13:12:05.889Z,35.53
2022-10-18T13:15:07.075Z,32.37
2022-10-18T13:17:44.485Z,32.03
2022-10-18T13:20:25.634Z,32.93
2022-10-18T13:22:55.339Z,30.13
2022-10-18T13:25:21.620Z,27.53
2022-10-18T13:27:55.672Z,24.60
2022-10-18T13:30:31.031Z,26.13
2022-10-18T13:33:17.572Z,25.30
2022-10-18T13:35:44.205Z,23.57
2022-10-18T13:38:25.363Z,24.07
2022-10-18T13:41:03.917Z,24.63
2022-10-18T13:43:52.190Z,21.63
2022-10-18T13:46:19.314Z,24.07
2022-10-18T13:48:46.785Z,22.60
2022-10-18T13:51:28.607Z,26.43
2022-10-18T13:54:07.670Z,25.27
2022-10-18T13:56:51.157Z,24.23
2022-10-18T13:59:32.571Z,24.13
2022-10-18T14:02:30.711Z,22.03
2022-10-18T14:05:25.395Z,26.17
2022-10-18T14:07:59.686Z,22.47
2022-10-18T14:10:57.522Z,20.93
2022-10-18T14:13:26.233Z,18.30
2022-10-18T14:15:54.454Z,19.63
2022-10-18T14:18:28.977Z,20.77
2022-10-18T14:21:17.731Z,21.00
2022-10-18T14:23:46.192Z,33.53
2022-10-18T14:26:16.790Z,20.37
2022-10-18T14:29:00.294Z,18.97
2022-10-18T14:31:27.059Z,17.80
2022-10-18T14:33:57.647Z,16.43
2022-10-18T14:36:26.111Z,16.70
2022-10-18T14:38:52.326Z,14.80
2022-10-18T14:41:21.679Z,14.23
2022-10-18T14:43:48.408Z,13.70
2022-10-18T14:46:17.765Z,15.13
2022-10-18T14:48:51.554Z,14.70
2022-10-18T14:51:18.356Z,17.53
2022-10-18T14:53:44.605Z,27.00
2022-10-18T14:56:20.222Z,15.53
2022-10-18T14:58:46.595Z,15.47
2022-10-18T15:01:17.166Z,14.90
2022-10-18T15:03:44.392Z,13.13
2022-10-18T15:06:18.802Z,13.03
2022-10-18T15:08:46.416Z,12.17
2022-10-18T15:11:14.594Z,12.43
2022-10-18T15:13:53.353Z,10.83
2022-10-18T15:16:20.715Z,10.73
2022-10-18T15:19:04.664Z,11.77
2022-10-18T15:21:31.489Z,8.03
2022-10-18T15:24:16.605Z,9.17
2022-10-18T15:26:44.253Z,7.50
2022-10-18T15:29:15.977Z,9.50
2022-10-18T15:31:42.941Z,9.85
2022-10-18T15:34:15.382Z,9.60
2022-10-18T15:39:18.262Z,9.35
2022-10-18T15:41:46.197Z,11.60
2022-10-18T15:44:15.176Z,11.20
2022-10-18T15:46:41.420Z,10.68
2022-10-18T15:49:26.464Z,16.02
2022-10-18T15:52:15.749Z,18.03
2022-10-18T15:54:42.078Z,13.87
2022-10-18T15:57:09.989Z,16.00
2022-10-18T15:59:38.448Z,14.13
2022-10-18T16:02:09.319Z,15.43
2022-10-18T16:04:36.511Z,16.03
2022-10-18T16:07:02.750Z,14.07
2022-10-18T16:09:29.168Z,19.90
2022-10-18T16:11:57.320Z,20.57
2022-10-18T16:14:24.301Z,20.90
2022-10-18T16:16:52.125Z,17.23
2022-10-18T16:19:18.703Z,18.70
2022-10-18T16:21:45.062Z,23.73
2022-10-18T16:24:11.304Z,21.00
2022-10-18T16:26:37.620Z,21.97
2022-10-18T16:29:04.706Z,24.47
2022-10-18T16:31:32.861Z,20.67
2022-10-18T16:33:59.620Z,17.83
2022-10-18T16:36:26.823Z,20.63
2022-10-18T16:38:54.858Z,26.10
2022-10-18T16:41:21.240Z,24.27
2022-10-18T16:43:48.483Z,24.97
2022-10-18T16:46:20.937Z,23.30
2022-10-18T16:48:47.892Z,24.63
2022-10-18T16:51:14.105Z,64.27
2022-10-18T16:53:40.377Z,33.37
2022-10-18T16:56:11.401Z,27.37
2022-10-18T16:58:37.710Z,28.50
2022-10-18T17:01:06.676Z,25.33
2022-10-18T17:03:35.139Z,27.00
2022-10-18T17:06:01.347Z,27.33
2022-10-18T17:08:28.013Z,26.43
2022-10-18T17:10:56.845Z,24.73
2022-10-18T17:13:23.909Z,22.33
2022-10-18T17:15:50.575Z,19.43
2022-10-18T17:18:19.131Z,22.77
2022-10-18T17:20:45.496Z,24.80
2022-10-18T17:23:12.177Z,22.30
2022-10-18T17:25:47.237Z,23.83
2022-10-18T17:28:24.160Z,23.40
2022-10-18T17:30:50.485Z,23.47
2022-10-18T17:33:16.808Z,24.23
2022-10-18T17:35:44.062Z,26.20
2022-10-18T17:38:10.530Z,30.03
2022-10-18T17:40:39.127Z,22.10
2022-10-18T17:43:05.364Z,23.03
2022-10-18T17:45:31.828Z,21.57
2022-10-18T17:47:58.057Z,23.50
2022-10-18T17:50:24.437Z,20.33
2022-10-18T17:52:50.651Z,52.90
2022-10-18T17:55:17.065Z,53.57
2022-10-18T17:57:43.523Z,28.10
2022-10-18T18:00:11.498Z,23.17
2022-10-18T18:02:39.758Z,21.33
2022-10-18T18:05:08.956Z,25.93
2022-10-18T18:07:35.236Z,26.13
2022-10-18T18:10:01.466Z,20.83
2022-10-18T18:12:27.721Z,24.03
2022-10-18T18:14:53.960Z,27.50
2022-10-18T18:17:28.652Z,24.07
2022-10-18T18:20:00.509Z,23.60
2022-10-18T18:22:28.190Z,24.60
2022-10-18T18:24:54.445Z,38.20
2022-10-18T18:27:20.697Z,26.80
2022-10-18T18:29:46.952Z,23.50
2022-10-18T18:32:13.245Z,29.10
2022-10-18T18:34:41.542Z,26.50
2022-10-18T18:37:08.385Z,25.53
2022-10-18T18:39:35.723Z,27.87
2022-10-18T18:42:03.494Z,26.63
2022-10-18T18:44:29.843Z,23.87
2022-10-18T18:46:56.316Z,26.17
2022-10-18T18:49:22.609Z,28.00
2022-10-18T18:51:48.850Z,26.83
2022-10-18T18:54:15.633Z,25.13
2022-10-18T18:56:42.453Z,25.70
2022-10-18T18:59:08.896Z,24.60
2022-10-18T19:01:36.010Z,24.07
2022-10-18T19:04:02.691Z,24.27
2022-10-18T19:06:30.161Z,25.90
2022-10-18T19:09:04.396Z,23.70
2022-10-18T19:11:35.404Z,23.57
2022-10-18T19:14:02.484Z,20.13
2022-10-18T19:16:30.113Z,22.17
2022-10-18T19:18:59.203Z,28.60
2022-10-18T19:21:26.793Z,23.33
2022-10-18T19:23:53.467Z,27.83
2022-10-18T19:26:27.781Z,20.77
2022-10-18T19:28:54.191Z,25.20
2022-10-18T19:31:20.481Z,24.43
2022-10-18T19:33:48.350Z,23.70
2022-10-18T19:36:14.946Z,21.23
2022-10-18T19:38:41.193Z,21.27
2022-10-18T19:41:07.466Z,21.93
2022-10-18T19:43:33.675Z,23.27
2022-10-18T19:46:06.058Z,22.23
2022-10-18T19:48:32.277Z,23.63
2022-10-18T19:51:03.371Z,24.43
2022-10-18T19:53:29.629Z,27.90
2022-10-18T19:55:59.684Z,22.13
2022-10-18T19:58:26.124Z,24.87
2022-10-18T20:00:55.968Z,26.23
2022-10-18T20:03:23.003Z,20.97
2022-10-18T20:05:59.082Z,23.73
2022-10-18T20:08:28.319Z,23.60
2022-10-18T20:10:54.819Z,27.30
2022-10-18T20:13:21.765Z,26.93
2022-10-18T20:15:48.489Z,39.73
2022-10-18T20:18:15.265Z,43.03
2022-10-18T20:20:44.576Z,26.37
2022-10-18T20:23:14.349Z,24.20
2022-10-18T20:25:40.640Z,28.13
2022-10-18T20:28:07.153Z,29.23
2022-10-18T20:30:33.523Z,29.60
2022-10-18T20:32:59.800Z,27.27
2022-10-18T20:35:26.044Z,29.43
2022-10-18T20:37:52.300Z,29.03
2022-10-18T20:40:18.521Z,30.60
2022-10-18T20:42:44.777Z,32.03
2022-10-18T20:45:12.397Z,27.60
2022-10-18T20:47:38.708Z,27.03
2022-10-18T20:50:05.121Z,25.43
2022-10-18T20:52:31.459Z,28.60
2022-10-18T20:54:57.752Z,29.47
2022-10-18T20:57:23.979Z,25.97
2022-10-18T20:59:50.264Z,26.87
2022-10-18T21:02:16.477Z,26.50
2022-10-18T21:04:42.724Z,26.23
2022-10-18T21:07:08.972Z,25.63
2022-10-18T21:09:35.185Z,26.87
2022-10-18T21:12:01.453Z,25.10
2022-10-18T21:14:27.779Z,23.67
2022-10-18T21:16:54.074Z,23.60
2022-10-18T21:19:21.379Z,19.47
2022-10-18T21:21:50.271Z,18.80
2022-10-18T21:24:17.348Z,21.27
2022-10-18T21:26:43.836Z,22.63
2022-10-18T21:29:10.308Z,15.47
2022-10-18T21:31:38.970Z,13.17
2022-10-18T21:34:06.745Z,14.00
2022-10-18T21:36:34.530Z,13.67
2022-10-18T21:39:01.596Z,13.53
2022-10-18T21:41:47.056Z,11.57
2022-10-18T21:44:13.923Z,13.17
2022-10-18T21:46:40.569Z,11.07
2022-10-18T21:49:07.970Z,11.50
2022-10-18T21:51:34.387Z,10.27
2022-10-18T21:54:00.679Z,13.77
2022-10-18T21:56:28.393Z,13.53
2022-10-18T21:58:55.344Z,18.17
2022-10-18T22:01:23.384Z,14.90
2022-10-18T22:03:56.368Z,12.83
2022-10-18T22:06:22.944Z,11.90
2022-10-18T22:08:51.011Z,12.90
2022-10-18T22:11:17.796Z,12.83
2022-10-18T22:13:44.234Z,12.30
2022-10-18T22:16:11.576Z,16.87
2022-10-18T22:18:37.828Z,15.00
2022-10-18T22:21:05.701Z,13.67
2022-10-18T22:23:32.890Z,12.63
2022-10-18T22:26:03.371Z,14.20
2022-10-18T22:28:29.631Z,14.80
2022-10-18T22:30:55.897Z,13.17
2022-10-18T22:33:22.095Z,11.43
2022-10-18T22:35:48.985Z,16.20
2022-10-18T22:38:15.209Z,14.37
2022-10-18T22:40:41.445Z,13.77
2022-10-18T22:43:07.727Z,12.43
2022-10-18T22:45:33.975Z,11.20
2022-10-18T22:48:00.192Z,12.27
2022-10-18T22:50:26.427Z,16.63
2022-10-18T22:52:54.582Z,15.60
2022-10-18T22:55:21.020Z,13.33
2022-10-18T22:57:59.162Z,13.57
2022-10-18T23:00:25.447Z,13.23
2022-10-18T23:02:51.770Z,19.40
2022-10-18T23:05:18.006Z,16.10
2022-10-18T23:07:56.156Z,19.77
2022-10-18T23:10:22.371Z,14.87
2022-10-18T23:12:48.585Z,13.07
2022-10-18T23:15:15.024Z,14.90
2022-10-18T23:17:41.257Z,11.70
2022-10-18T23:20:07.749Z,12.80
2022-10-18T23:22:34.335Z,11.87
2022-10-18T23:25:00.764Z,25.57
2022-10-18T23:27:28.231Z,31.23
2022-10-18T23:29:54.464Z,21.10
2022-10-18T23:32:20.697Z,30.03
2022-10-18T23:34:46.937Z,32.20
2022-10-18T23:37:13.165Z,17.03
2022-10-18T23:39:39.420Z,28.97
2022-10-18T23:42:05.639Z,13.60
2022-10-18T23:44:31.869Z,12.40
2022-10-18T23:46:58.355Z,22.37
2022-10-18T23:49:24.567Z,16.80
2022-10-18T23:52:06.472Z,15.23
2022-10-18T23:54:32.827Z,16.30
2022-10-18T23:56:59.112Z,26.37
2022-10-18T23:59:25.461Z,53.03
